createdAt,value
2018-02-26T00:00:03.558Z,0.00
2018-02-26T00:01:03.965Z,0.00
2018-02-26T00:02:04.388Z,0.00
2018-02-26T00:03:04.809Z,0.00
2018-02-26T00:04:05.214Z,0.00
2018-02-26T00:05:05.633Z,0.00
2018-02-26T00:06:06.053Z,0.00
2018-02-26T00:07:06.470Z,0.00
2018-02-26T00:08:06.878Z,0.00
2018-02-26T00:09:07.297Z,0.00
2018-02-26T00:10:07.705Z,0.00
2018-02-26T00:11:08.121Z,0.00
2018-02-26T00:12:08.553Z,0.00
2018-02-26T00:13:08.966Z,0.00
2018-02-26T00:14:09.367Z,0.00
2018-02-26T00:15:09.797Z,0.00
2018-02-26T00:16:10.197Z,0.00
2018-02-26T00:17:10.615Z,0.00
2018-02-26T00:18:11.026Z,0.00
2018-02-26T00:19:11.448Z,0.00
2018-02-26T00:20:11.854Z,0.00
2018-02-26T00:21:12.270Z,0.00
2018-02-26T00:22:12.686Z,0.00
2018-02-26T00:23:13.102Z,0.00
2018-02-26T00:24:13.515Z,0.00
2018-02-26T00:25:13.930Z,0.00
2018-02-26T00:26:14.347Z,0.00
2018-02-26T00:27:14.761Z,0.00
2018-02-26T00:28:15.176Z,0.00
2018-02-26T00:29:15.595Z,0.00
2018-02-26T00:30:16.006Z,0.00
2018-02-26T00:31:16.421Z,0.00
2018-02-26T00:32:16.837Z,0.00
2018-02-26T00:33:17.251Z,0.00
2018-02-26T00:34:17.667Z,0.00
2018-02-26T00:35:18.081Z,0.00
2018-02-26T00:36:18.497Z,0.00
2018-02-26T00:37:18.913Z,0.00
2018-02-26T00:38:19.330Z,0.00
2018-02-26T00:39:19.813Z,0.00
2018-02-26T00:40:20.164Z,0.00
2018-02-26T00:41:20.575Z,0.00
2018-02-26T00:42:20.985Z,0.00
2018-02-26T00:43:21.402Z,0.00
2018-02-26T00:44:21.816Z,0.00
2018-02-26T00:45:22.230Z,0.00
2018-02-26T00:46:22.647Z,0.00
2018-02-26T00:47:23.063Z,0.00
2018-02-26T00:48:23.485Z,0.00
2018-02-26T00:49:23.896Z,0.00
2018-02-26T00:50:24.312Z,0.00
2018-02-26T00:51:24.722Z,0.00
2018-02-26T00:52:25.179Z,0.00
2018-02-26T00:53:25.562Z,0.00
2018-02-26T00:54:25.978Z,0.00
2018-02-26T00:55:26.380Z,0.00
2018-02-26T00:56:26.803Z,0.00
2018-02-26T00:57:27.219Z,0.00
2018-02-26T00:58:27.625Z,0.00
2018-02-26T00:59:28.041Z,0.00
2018-02-26T01:00:28.458Z,0.00
2018-02-26T01:01:28.872Z,0.00
2018-02-26T01:02:29.290Z,0.00
2018-02-26T01:03:29.850Z,0.00
2018-02-26T01:04:30.121Z,0.00
2018-02-26T01:05:30.537Z,0.00
2018-02-26T01:06:30.952Z,0.00
2018-02-26T01:07:31.374Z,0.00
2018-02-26T01:08:31.782Z,0.00
2018-02-26T01:09:32.192Z,0.00
2018-02-26T01:10:32.606Z,0.00
2018-02-26T01:11:33.025Z,0.00
2018-02-26T01:12:33.440Z,0.00
2018-02-26T01:13:33.856Z,0.00
2018-02-26T01:14:34.274Z,0.00
2018-02-26T01:15:34.684Z,0.00
2018-02-26T01:16:35.254Z,0.00
2018-02-26T01:17:35.509Z,0.00
2018-02-26T01:18:35.926Z,0.00
2018-02-26T01:19:36.357Z,0.00
2018-02-26T01:20:36.758Z,0.00
2018-02-26T01:21:37.185Z,0.00
2018-02-26T01:22:37.581Z,0.00
2018-02-26T01:23:37.998Z,0.00
2018-02-26T01:24:38.411Z,0.00
2018-02-26T01:25:38.830Z,0.00
2018-02-26T01:26:39.241Z,0.00
2018-02-26T01:27:39.659Z,0.00
2018-02-26T01:28:40.111Z,0.00
2018-02-26T01:29:40.488Z,0.00
2018-02-26T01:30:40.905Z,0.00
2018-02-26T01:31:41.314Z,0.00
2018-02-26T01:32:41.732Z,0.00
2018-02-26T01:33:42.146Z,0.00
2018-02-26T01:34:42.566Z,0.00
2018-02-26T01:35:42.978Z,0.00
2018-02-26T01:36:43.388Z,0.00
2018-02-26T01:37:43.799Z,0.00
2018-02-26T01:38:44.228Z,0.00
2018-02-26T01:39:44.635Z,0.00
2018-02-26T01:40:45.051Z,0.00
2018-02-26T01:41:45.462Z,0.00
2018-02-26T01:42:45.881Z,0.00
2018-02-26T01:43:46.292Z,0.00
2018-02-26T01:44:46.703Z,0.00
2018-02-26T01:45:47.123Z,0.00
2018-02-26T01:46:47.539Z,0.00
2018-02-26T01:47:47.952Z,0.00
2018-02-26T01:48:48.397Z,0.00
2018-02-26T01:49:48.784Z,0.00
2018-02-26T01:50:49.194Z,0.00
2018-02-26T01:51:49.608Z,0.00
2018-02-26T01:52:50.024Z,0.00
2018-02-26T01:53:50.435Z,0.00
2018-02-26T01:54:50.850Z,0.00
2018-02-26T01:55:51.264Z,0.00
2018-02-26T01:56:51.680Z,0.00
2018-02-26T01:57:52.103Z,0.00
2018-02-26T01:58:52.511Z,0.00
2018-02-26T01:59:52.926Z,0.00
2018-02-26T02:00:53.338Z,0.00
2018-02-26T02:01:53.759Z,0.00
2018-02-26T02:02:54.165Z,0.00
2018-02-26T02:03:54.587Z,0.00
2018-02-26T02:04:55.002Z,0.00
2018-02-26T02:05:55.412Z,0.00
2018-02-26T02:06:55.831Z,0.00
2018-02-26T02:07:56.247Z,0.00
2018-02-26T02:08:56.661Z,0.00
2018-02-26T02:09:57.113Z,0.00
2018-02-26T02:10:57.481Z,0.00
2018-02-26T02:11:57.904Z,0.00
2018-02-26T02:12:58.312Z,0.00
2018-02-26T02:13:58.728Z,0.00
2018-02-26T02:14:59.145Z,0.00
2018-02-26T02:15:59.555Z,0.00
2018-02-26T02:16:59.974Z,0.00
2018-02-26T02:18:00.384Z,0.00
2018-02-26T02:19:00.800Z,0.00
2018-02-26T02:20:01.217Z,0.00
2018-02-26T02:21:01.631Z,0.00
2018-02-26T02:22:02.045Z,0.00
2018-02-26T02:23:02.464Z,0.00
2018-02-26T02:24:02.873Z,0.00
2018-02-26T02:25:03.285Z,0.00
2018-02-26T02:26:03.700Z,0.00
2018-02-26T02:27:04.112Z,0.00
2018-02-26T02:28:04.588Z,0.00
2018-02-26T02:29:04.950Z,0.00
2018-02-26T02:30:05.360Z,0.00
2018-02-26T02:31:05.782Z,0.00
2018-02-26T02:32:06.194Z,0.00
2018-02-26T02:33:06.602Z,0.00
2018-02-26T02:34:07.018Z,0.00
2018-02-26T02:35:07.432Z,0.00
2018-02-26T02:36:07.855Z,0.00
2018-02-26T02:37:08.272Z,0.00
2018-02-26T02:38:08.683Z,0.00
2018-02-26T02:39:09.096Z,0.00
2018-02-26T02:40:09.503Z,0.00
2018-02-26T02:41:09.916Z,0.00
2018-02-26T02:42:10.332Z,0.00
2018-02-26T02:43:10.743Z,0.00
2018-02-26T02:44:11.156Z,0.00
2018-02-26T02:45:11.573Z,0.00
2018-02-26T02:46:11.990Z,0.00
2018-02-26T02:47:12.400Z,0.00
2018-02-26T02:48:12.835Z,0.00
2018-02-26T02:49:13.235Z,0.00
2018-02-26T02:50:13.649Z,0.00
2018-02-26T02:51:14.075Z,0.00
2018-02-26T02:52:14.470Z,0.00
2018-02-26T02:53:14.894Z,0.00
2018-02-26T02:54:15.304Z,0.00
2018-02-26T02:55:15.716Z,0.00
2018-02-26T02:56:16.136Z,0.00
2018-02-26T02:57:16.552Z,0.00
2018-02-26T02:58:16.955Z,0.00
2018-02-26T02:59:17.371Z,0.00
2018-02-26T03:00:17.789Z,0.00
2018-02-26T03:01:18.200Z,0.00
2018-02-26T03:02:18.614Z,0.00
2018-02-26T03:03:19.029Z,0.00
2018-02-26T03:04:19.445Z,0.00
2018-02-26T03:05:19.904Z,0.00
2018-02-26T03:06:20.275Z,0.00
2018-02-26T03:07:20.694Z,0.00
2018-02-26T03:08:21.099Z,0.00
2018-02-26T03:09:21.511Z,0.00
2018-02-26T03:10:21.927Z,0.00
2018-02-26T03:11:22.341Z,0.00
2018-02-26T03:12:22.755Z,0.00
2018-02-26T03:13:23.169Z,0.00
2018-02-26T03:14:23.582Z,0.00
2018-02-26T03:15:23.999Z,0.00
2018-02-26T03:16:24.412Z,0.00
2018-02-26T03:17:24.825Z,0.00
2018-02-26T03:18:25.243Z,0.00
2018-02-26T03:19:25.660Z,0.00
2018-02-26T03:20:26.072Z,0.00
2018-02-26T03:21:26.485Z,0.00
2018-02-26T03:22:26.911Z,0.00
2018-02-26T03:23:27.316Z,0.00
2018-02-26T03:24:27.727Z,0.00
2018-02-26T03:25:28.142Z,0.00
2018-02-26T03:26:28.566Z,0.00
2018-02-26T03:27:28.975Z,0.00
2018-02-26T03:28:29.401Z,0.00
2018-02-26T03:29:29.797Z,0.00
2018-02-26T03:30:30.212Z,0.00
2018-02-26T03:31:30.629Z,0.00
2018-02-26T03:32:31.040Z,0.00
2018-02-26T03:33:31.453Z,0.00
2018-02-26T03:34:31.871Z,0.00
2018-02-26T03:35:32.308Z,0.00
2018-02-26T03:36:32.699Z,0.00
2018-02-26T03:37:33.110Z,0.00
2018-02-26T03:38:33.524Z,0.00
2018-02-26T03:39:33.941Z,0.00
2018-02-26T03:40:34.357Z,0.00
2018-02-26T03:41:34.774Z,0.00
2018-02-26T03:42:35.187Z,0.00
2018-02-26T03:43:35.596Z,0.00
2018-02-26T03:44:36.013Z,0.00
2018-02-26T03:45:36.434Z,0.00
2018-02-26T03:46:36.859Z,0.00
2018-02-26T03:47:37.260Z,0.00
2018-02-26T03:48:37.676Z,0.00
2018-02-26T03:49:38.081Z,0.00
2018-02-26T03:50:38.514Z,0.00
2018-02-26T03:51:38.914Z,0.00
2018-02-26T03:52:39.329Z,0.00
2018-02-26T03:53:39.741Z,0.00
2018-02-26T03:54:40.155Z,0.00
2018-02-26T03:55:40.572Z,0.00
2018-02-26T03:56:40.982Z,0.00
2018-02-26T03:57:41.396Z,0.00
2018-02-26T03:58:41.809Z,0.00
2018-02-26T03:59:42.223Z,0.00
2018-02-26T04:00:42.643Z,0.00
2018-02-26T04:01:43.060Z,0.00
2018-02-26T04:02:43.465Z,0.00
2018-02-26T04:03:43.883Z,0.00
2018-02-26T04:04:44.295Z,0.00
2018-02-26T04:05:44.713Z,0.00
2018-02-26T04:06:45.126Z,0.00
2018-02-26T04:07:45.544Z,0.00
2018-02-26T04:08:45.959Z,0.00
2018-02-26T04:09:46.372Z,0.00
2018-02-26T04:10:46.780Z,0.00
2018-02-26T04:11:47.195Z,0.00
2018-02-26T04:12:47.607Z,0.00
2018-02-26T04:13:48.029Z,0.00
2018-02-26T04:14:48.443Z,0.00
2018-02-26T04:15:48.851Z,0.00
2018-02-26T04:16:49.282Z,0.00
2018-02-26T04:17:49.712Z,0.00
2018-02-26T04:18:50.101Z,0.00
2018-02-26T04:19:50.511Z,0.00
2018-02-26T04:20:50.927Z,0.00
2018-02-26T04:21:51.332Z,0.00
2018-02-26T04:22:51.749Z,0.00
2018-02-26T04:23:52.167Z,0.00
2018-02-26T04:24:52.583Z,0.00
2018-02-26T04:25:53.000Z,0.00
2018-02-26T04:26:53.417Z,0.00
2018-02-26T04:27:53.842Z,0.00
2018-02-26T04:28:54.235Z,0.00
2018-02-26T04:29:54.651Z,0.00
2018-02-26T04:30:55.065Z,0.00
2018-02-26T04:31:55.485Z,0.00
2018-02-26T04:32:55.896Z,0.00
2018-02-26T04:33:56.302Z,0.00
2018-02-26T04:34:56.716Z,0.00
2018-02-26T04:35:57.153Z,0.00
2018-02-26T04:36:57.554Z,0.00
2018-02-26T04:37:57.958Z,0.00
2018-02-26T04:38:58.374Z,0.00
2018-02-26T04:39:58.792Z,0.00
2018-02-26T04:40:59.200Z,0.00
2018-02-26T04:41:59.618Z,0.00
2018-02-26T04:43:00.032Z,0.00
2018-02-26T04:44:00.449Z,0.00
2018-02-26T04:45:00.857Z,0.00
2018-02-26T04:46:01.274Z,0.00
2018-02-26T04:47:01.687Z,0.00
2018-02-26T04:48:02.102Z,0.00
2018-02-26T04:49:02.515Z,0.00
2018-02-26T04:50:02.933Z,0.00
2018-02-26T04:51:03.343Z,0.00
2018-02-26T04:52:03.757Z,0.00
2018-02-26T04:53:04.171Z,0.00
2018-02-26T04:54:04.582Z,0.00
2018-02-26T04:55:04.999Z,0.00
2018-02-26T04:56:05.414Z,0.00
2018-02-26T04:57:05.832Z,0.00
2018-02-26T04:58:06.248Z,0.00
2018-02-26T04:59:06.655Z,0.00
2018-02-26T05:00:07.071Z,0.00
2018-02-26T05:01:07.484Z,0.00
2018-02-26T05:02:07.900Z,0.00
2018-02-26T05:03:08.327Z,0.00
2018-02-26T05:04:08.743Z,0.00
2018-02-26T05:05:09.141Z,0.00
2018-02-26T05:06:09.558Z,0.00
2018-02-26T05:07:09.972Z,0.00
2018-02-26T05:08:10.384Z,0.00
2018-02-26T05:09:10.796Z,0.00
2018-02-26T05:10:11.208Z,0.00
2018-02-26T05:11:11.641Z,0.00
2018-02-26T05:12:12.045Z,0.00
2018-02-26T05:13:12.455Z,0.00
2018-02-26T05:14:12.865Z,0.00
2018-02-26T05:15:13.278Z,0.00
2018-02-26T05:16:13.692Z,0.00
2018-02-26T05:17:14.111Z,0.00
2018-02-26T05:18:14.520Z,0.00
2018-02-26T05:19:14.946Z,0.00
2018-02-26T05:20:15.347Z,0.00
2018-02-26T05:21:15.766Z,0.00
2018-02-26T05:22:16.178Z,0.00
2018-02-26T05:23:16.593Z,0.00
2018-02-26T05:24:17.013Z,0.00
2018-02-26T05:25:17.429Z,0.00
2018-02-26T05:26:17.832Z,0.00
2018-02-26T05:27:18.246Z,4.00
2018-02-26T05:28:18.662Z,0.00
2018-02-26T05:29:19.077Z,0.00
2018-02-26T05:30:19.492Z,4.00
2018-02-26T05:31:19.912Z,4.00
2018-02-26T05:32:20.318Z,4.00
2018-02-26T05:33:20.731Z,4.00
2018-02-26T05:34:21.147Z,4.00
2018-02-26T05:35:21.559Z,4.00
2018-02-26T05:36:21.976Z,4.00
2018-02-26T05:37:22.394Z,8.00
2018-02-26T05:38:22.820Z,8.00
2018-02-26T05:39:23.223Z,8.00
2018-02-26T05:40:23.627Z,12.00
2018-02-26T05:41:24.045Z,16.00
2018-02-26T05:42:24.458Z,16.00
2018-02-26T05:43:24.875Z,20.00
2018-02-26T05:44:25.300Z,20.00
2018-02-26T05:45:25.701Z,28.00
2018-02-26T05:46:26.126Z,28.00
2018-02-26T05:47:26.553Z,36.00
2018-02-26T05:48:26.953Z,44.00
2018-02-26T05:49:27.363Z,48.00
2018-02-26T05:50:27.779Z,52.00
2018-02-26T05:51:28.196Z,60.00
2018-02-26T05:52:28.604Z,68.00
2018-02-26T05:53:29.012Z,76.00
2018-02-26T05:54:29.424Z,88.00
2018-02-26T05:55:29.843Z,96.00
2018-02-26T05:56:30.257Z,108.00
2018-02-26T05:57:30.676Z,120.00
2018-02-26T05:58:31.081Z,132.00
2018-02-26T05:59:31.496Z,144.00
2018-02-26T06:00:31.908Z,156.00
2018-02-26T06:01:32.328Z,172.00
2018-02-26T06:02:32.760Z,188.00
2018-02-26T06:03:33.151Z,208.00
2018-02-26T06:04:33.567Z,224.00
2018-02-26T06:05:33.985Z,244.00
2018-02-26T06:06:34.393Z,260.00
2018-02-26T06:07:34.811Z,284.00
2018-02-26T06:08:35.223Z,304.00
2018-02-26T06:09:35.639Z,324.00
2018-02-26T06:10:36.050Z,348.00
2018-02-26T06:11:36.458Z,372.00
2018-02-26T06:12:36.875Z,400.00
2018-02-26T06:13:37.293Z,424.00
2018-02-26T06:14:37.706Z,448.00
2018-02-26T06:15:38.126Z,472.00
2018-02-26T06:16:38.539Z,496.00
2018-02-26T06:17:38.947Z,528.00
2018-02-26T06:18:39.356Z,552.00
2018-02-26T06:19:39.767Z,580.00
2018-02-26T06:20:40.181Z,608.00
2018-02-26T06:21:40.602Z,636.00
2018-02-26T06:22:41.007Z,664.00
2018-02-26T06:23:41.464Z,688.00
2018-02-26T06:24:41.838Z,720.00
2018-02-26T06:25:42.253Z,748.00
2018-02-26T06:26:42.671Z,776.00
2018-02-26T06:27:43.086Z,804.00
2018-02-26T06:28:43.546Z,828.00
2018-02-26T06:29:43.903Z,852.00
2018-02-26T06:30:44.320Z,880.00
2018-02-26T06:31:44.727Z,904.00
2018-02-26T06:32:45.147Z,932.00
2018-02-26T06:33:45.561Z,960.00
2018-02-26T06:34:45.967Z,988.00
2018-02-26T06:35:46.385Z,1020.00
2018-02-26T06:36:46.799Z,1048.00
2018-02-26T06:37:47.207Z,1080.00
2018-02-26T06:38:47.689Z,1116.00
2018-02-26T06:39:48.042Z,1144.00
2018-02-26T06:40:48.446Z,1172.00
2018-02-26T06:41:48.861Z,1200.00
2018-02-26T06:42:49.285Z,1232.00
2018-02-26T06:43:49.704Z,1256.00
2018-02-26T06:44:50.106Z,1284.00
2018-02-26T06:45:50.522Z,1312.00
2018-02-26T06:46:50.939Z,1344.00
2018-02-26T06:47:51.354Z,1372.00
2018-02-26T06:48:51.760Z,1436.00
2018-02-26T06:49:52.186Z,1544.00
2018-02-26T06:50:52.590Z,1760.00
2018-02-26T06:51:53.007Z,2076.00
2018-02-26T06:52:53.417Z,2188.00
2018-02-26T06:53:53.829Z,2224.00
2018-02-26T06:54:54.238Z,2208.00
2018-02-26T06:55:54.655Z,2136.00
2018-02-26T06:56:55.070Z,1920.00
2018-02-26T06:57:55.494Z,1860.00
2018-02-26T06:58:55.898Z,1816.00
2018-02-26T06:59:56.330Z,1804.00
2018-02-26T07:00:56.731Z,1784.00
2018-02-26T07:01:57.140Z,1796.00
2018-02-26T07:02:57.555Z,1832.00
2018-02-26T07:03:57.966Z,1868.00
2018-02-26T07:04:58.388Z,1896.00
2018-02-26T07:05:58.794Z,1916.00
2018-02-26T07:06:59.210Z,1968.00
2018-02-26T07:07:59.629Z,2060.00
2018-02-26T07:09:00.037Z,2128.00
2018-02-26T07:10:00.450Z,2272.00
2018-02-26T07:11:00.867Z,2404.00
2018-02-26T07:12:01.318Z,2400.00
2018-02-26T07:13:01.756Z,2324.00
2018-02-26T07:14:02.105Z,2264.00
2018-02-26T07:15:02.525Z,2380.00
2018-02-26T07:16:03.095Z,2484.00
2018-02-26T07:17:03.367Z,2684.00
2018-02-26T07:18:03.769Z,2812.00
2018-02-26T07:19:04.185Z,2808.00
2018-02-26T07:20:04.591Z,2784.00
2018-02-26T07:21:05.004Z,2824.00
2018-02-26T07:22:05.414Z,2744.00
2018-02-26T07:23:05.835Z,2796.00
2018-02-26T07:24:06.258Z,2912.00
2018-02-26T07:25:06.665Z,2920.00
2018-02-26T07:26:07.079Z,2852.00
2018-02-26T07:27:07.528Z,2892.00
2018-02-26T07:28:07.917Z,3124.00
2018-02-26T07:29:08.315Z,3024.00
2018-02-26T07:30:08.733Z,3268.00
2018-02-26T07:31:09.149Z,3456.00
2018-02-26T07:32:09.564Z,3492.00
2018-02-26T07:33:09.974Z,3368.00
2018-02-26T07:34:10.386Z,3240.00
2018-02-26T07:35:10.802Z,3340.00
2018-02-26T07:36:11.218Z,3572.00
2018-02-26T07:37:11.664Z,3760.00
2018-02-26T07:38:12.048Z,3848.00
2018-02-26T07:39:12.462Z,3768.00
2018-02-26T07:40:12.883Z,3672.00
2018-02-26T07:41:13.288Z,4052.00
2018-02-26T07:42:13.705Z,4484.00
2018-02-26T07:43:14.119Z,4328.00
2018-02-26T07:44:14.535Z,4284.00
2018-02-26T07:45:14.961Z,3880.00
2018-02-26T07:46:15.361Z,3972.00
2018-02-26T07:47:15.774Z,4160.00
2018-02-26T07:48:16.188Z,4736.00
2018-02-26T07:49:16.621Z,5072.00
2018-02-26T07:50:17.023Z,5320.00
2018-02-26T07:51:17.433Z,4856.00
2018-02-26T07:52:17.847Z,4868.00
2018-02-26T07:53:18.269Z,5044.00
2018-02-26T07:54:18.676Z,5288.00
2018-02-26T07:55:19.089Z,4856.00
2018-02-26T07:56:19.505Z,5144.00
2018-02-26T07:57:19.920Z,5964.00
2018-02-26T07:58:20.340Z,4968.00
2018-02-26T07:59:20.749Z,4680.00
2018-02-26T08:00:21.169Z,6688.00
2018-02-26T08:01:21.581Z,6260.00
2018-02-26T08:02:21.995Z,4140.00
2018-02-26T08:03:22.410Z,4224.00
2018-02-26T08:04:22.842Z,5444.00
2018-02-26T08:05:23.251Z,6248.00
2018-02-26T08:06:23.700Z,6308.00
2018-02-26T08:07:24.074Z,6008.00
2018-02-26T08:08:24.491Z,4988.00
2018-02-26T08:09:24.901Z,3736.00
2018-02-26T08:10:25.314Z,4760.00
2018-02-26T08:11:25.727Z,4988.00
2018-02-26T08:12:26.143Z,4280.00
2018-02-26T08:13:26.558Z,4780.00
2018-02-26T08:14:26.970Z,5844.00
2018-02-26T08:15:27.402Z,4628.00
2018-02-26T08:16:27.807Z,5144.00
2018-02-26T08:17:28.223Z,4340.00
2018-02-26T08:18:28.644Z,5704.00
2018-02-26T08:19:29.050Z,5780.00
2018-02-26T08:20:29.469Z,6456.00
2018-02-26T08:21:29.883Z,7280.00
2018-02-26T08:22:30.297Z,7264.00
2018-02-26T08:23:30.729Z,5724.00
2018-02-26T08:24:31.125Z,5336.00
2018-02-26T08:27:04.708Z,5616.00
2018-02-26T08:29:38.204Z,6948.00
2018-02-26T08:30:38.623Z,6936.00
2018-02-26T08:32:33.199Z,6340.00
2018-02-26T08:33:33.607Z,6192.00
2018-02-26T08:35:28.184Z,7244.00
2018-02-26T08:36:28.597Z,8512.00
2018-02-26T08:38:23.209Z,11392.00
2018-02-26T08:39:23.620Z,12188.00
2018-02-26T08:41:18.196Z,13876.00
2018-02-26T08:42:18.612Z,14192.00
2018-02-26T08:44:13.199Z,12828.00
2018-02-26T08:45:13.604Z,10844.00
2018-02-26T08:47:08.216Z,10808.00
2018-02-26T08:48:08.629Z,13444.00
2018-02-26T08:50:03.210Z,14244.00
2018-02-26T08:51:03.620Z,14404.00
2018-02-26T08:52:58.209Z,12240.00
2018-02-26T08:53:58.625Z,12656.00
2018-02-26T08:55:53.219Z,13132.00
2018-02-26T08:56:53.628Z,12936.00
2018-02-26T08:58:48.240Z,12696.00
2018-02-26T08:59:48.691Z,13544.00
2018-02-26T09:01:43.223Z,12732.00
2018-02-26T09:02:43.636Z,11564.00
2018-02-26T09:04:38.236Z,12144.00
2018-02-26T09:05:38.655Z,12908.00
2018-02-26T09:07:33.260Z,13956.00
2018-02-26T09:08:33.664Z,14612.00
2018-02-26T09:10:28.232Z,15936.00
2018-02-26T09:11:28.647Z,14352.00
2018-02-26T09:13:23.468Z,15712.00
2018-02-26T09:14:23.659Z,15936.00
2018-02-26T09:16:19.240Z,14032.00
2018-02-26T09:17:19.651Z,14556.00
2018-02-26T09:19:14.246Z,17472.00
2018-02-26T09:20:14.661Z,17408.00
2018-02-26T09:22:09.290Z,13440.00
2018-02-26T09:23:09.691Z,14112.00
2018-02-26T09:25:04.288Z,15872.00
2018-02-26T09:26:04.682Z,14656.00
2018-02-26T09:28:00.261Z,14352.00
2018-02-26T09:29:00.680Z,13356.00
2018-02-26T09:30:55.285Z,13208.00
2018-02-26T09:31:55.703Z,13064.00
2018-02-26T09:33:54.252Z,17984.00
2018-02-26T09:34:54.700Z,13244.00
2018-02-26T09:35:55.098Z,13748.00
2018-02-26T09:36:55.520Z,18432.00
2018-02-26T09:37:55.947Z,19072.00
2018-02-26T09:38:56.366Z,16672.00
2018-02-26T09:39:56.789Z,19488.00
2018-02-26T09:40:57.213Z,18432.00
2018-02-26T09:41:57.679Z,13920.00
2018-02-26T09:42:58.063Z,13180.00
2018-02-26T09:43:58.482Z,13040.00
2018-02-26T09:44:58.908Z,15712.00
2018-02-26T09:45:59.348Z,13376.00
2018-02-26T09:46:59.772Z,13024.00
2018-02-26T09:48:00.190Z,13848.00
2018-02-26T09:49:00.614Z,14248.00
2018-02-26T09:50:01.041Z,13400.00
2018-02-26T09:51:01.459Z,13236.00
2018-02-26T09:52:01.885Z,14448.00
2018-02-26T09:53:02.308Z,13848.00
2018-02-26T09:54:02.741Z,15904.00
2018-02-26T09:55:03.156Z,16928.00
2018-02-26T09:56:03.650Z,15024.00
2018-02-26T09:57:04.008Z,11972.00
2018-02-26T09:58:04.433Z,11192.00
2018-02-26T09:59:04.870Z,11416.00
2018-02-26T10:00:05.271Z,11536.00
2018-02-26T10:01:05.705Z,14336.00
2018-02-26T10:03:39.272Z,11576.00
2018-02-26T10:04:39.663Z,11972.00
2018-02-26T10:06:34.274Z,10716.00
2018-02-26T10:07:34.714Z,10148.00
2018-02-26T10:09:29.356Z,10520.00
2018-02-26T10:10:29.763Z,12136.00
2018-02-26T10:12:24.349Z,16160.00
2018-02-26T10:13:24.769Z,15628.00
2018-02-26T10:15:20.340Z,14268.00
2018-02-26T10:16:20.769Z,13728.00
2018-02-26T10:17:21.193Z,13528.00
2018-02-26T10:18:21.601Z,13248.00
2018-02-26T10:19:22.027Z,15600.00
2018-02-26T10:20:22.442Z,22944.00
2018-02-26T10:21:22.860Z,18272.00
2018-02-26T10:22:23.293Z,20000.00
2018-02-26T10:23:23.701Z,17088.00
2018-02-26T10:24:24.124Z,15004.00
2018-02-26T10:25:24.552Z,14972.00
2018-02-26T10:26:24.963Z,13728.00
2018-02-26T10:27:25.380Z,14488.00
2018-02-26T10:28:25.810Z,13436.00
2018-02-26T10:29:26.227Z,13308.00
2018-02-26T10:30:26.646Z,22688.00
2018-02-26T10:31:27.060Z,22848.00
2018-02-26T10:32:27.484Z,12360.00
2018-02-26T10:33:27.904Z,12088.00
2018-02-26T10:34:28.336Z,14772.00
2018-02-26T10:35:28.753Z,14052.00
2018-02-26T10:36:29.165Z,15900.00
2018-02-26T10:37:29.586Z,36544.00
2018-02-26T10:38:30.044Z,48512.00
2018-02-26T10:39:30.424Z,46528.00
2018-02-26T10:40:30.846Z,49920.00
2018-02-26T10:41:31.276Z,37888.00
2018-02-26T10:42:31.682Z,41568.00
2018-02-26T10:43:32.128Z,29696.00
2018-02-26T10:44:32.534Z,25216.00
2018-02-26T10:45:32.960Z,19392.00
2018-02-26T10:46:33.389Z,38592.00
2018-02-26T10:47:33.800Z,36096.00
2018-02-26T10:48:34.227Z,21120.00
2018-02-26T10:49:34.644Z,16960.00
2018-02-26T10:50:35.078Z,16000.00
2018-02-26T10:51:35.512Z,23072.00
2018-02-26T10:52:35.925Z,20064.00
2018-02-26T10:53:36.355Z,22336.00
2018-02-26T10:54:36.768Z,16320.00
2018-02-26T10:55:37.193Z,23808.00
2018-02-26T10:56:37.610Z,22368.00
2018-02-26T10:57:38.033Z,13596.00
2018-02-26T10:58:38.475Z,9748.00
2018-02-26T10:59:38.912Z,11756.00
2018-02-26T11:00:39.309Z,13196.00
2018-02-26T11:01:39.727Z,10860.00
2018-02-26T11:02:40.152Z,11316.00
2018-02-26T11:03:40.572Z,11120.00
2018-02-26T11:04:41.097Z,12552.00
2018-02-26T11:05:41.428Z,13576.00
2018-02-26T11:06:41.844Z,12420.00
2018-02-26T11:07:42.262Z,12676.00
2018-02-26T11:08:42.684Z,14232.00
2018-02-26T11:09:43.111Z,12664.00
2018-02-26T11:10:43.533Z,13696.00
2018-02-26T11:11:43.950Z,17344.00
2018-02-26T11:12:44.375Z,15532.00
2018-02-26T11:13:44.791Z,17696.00
2018-02-26T11:14:45.268Z,18304.00
2018-02-26T11:15:45.642Z,22016.00
2018-02-26T11:16:46.063Z,13888.00
2018-02-26T11:17:46.474Z,13356.00
2018-02-26T11:18:46.909Z,14704.00
2018-02-26T11:19:47.366Z,15152.00
2018-02-26T11:20:47.746Z,12224.00
2018-02-26T11:21:48.164Z,10688.00
2018-02-26T11:22:48.585Z,10316.00
2018-02-26T11:23:49.014Z,11120.00
2018-02-26T11:24:49.428Z,11424.00
2018-02-26T11:25:49.844Z,11116.00
2018-02-26T11:26:50.287Z,11292.00
2018-02-26T11:27:50.709Z,13584.00
2018-02-26T11:28:51.120Z,15564.00
2018-02-26T11:29:51.536Z,16928.00
2018-02-26T11:30:51.951Z,23104.00
2018-02-26T11:31:52.382Z,27744.00
2018-02-26T11:32:52.795Z,28320.00
2018-02-26T11:33:53.212Z,50208.00
2018-02-26T11:34:53.635Z,44224.00
2018-02-26T11:35:54.067Z,49088.00
2018-02-26T11:36:54.477Z,51296.00
2018-02-26T11:37:54.906Z,54016.00
2018-02-26T11:38:55.323Z,50464.00
2018-02-26T11:39:55.752Z,49632.00
2018-02-26T11:40:56.176Z,40704.00
2018-02-26T11:41:56.599Z,8112.00
2018-02-26T11:42:57.016Z,45152.00
2018-02-26T11:43:57.446Z,46816.00
2018-02-26T11:44:57.863Z,45120.00
2018-02-26T11:45:58.307Z,16640.00
2018-02-26T11:46:58.715Z,50528.00
2018-02-26T11:47:59.139Z,50816.00
2018-02-26T11:48:59.566Z,8936.00
2018-02-26T11:50:00.001Z,9948.00
2018-02-26T11:51:00.422Z,10948.00
2018-02-26T11:52:00.850Z,9844.00
2018-02-26T11:53:01.276Z,10428.00
2018-02-26T11:54:01.694Z,8744.00
2018-02-26T11:55:02.124Z,9536.00
2018-02-26T11:56:02.566Z,12180.00
2018-02-26T11:57:02.979Z,10984.00
2018-02-26T11:58:03.402Z,9300.00
2018-02-26T11:59:03.821Z,7036.00
2018-02-26T12:00:04.241Z,6220.00
2018-02-26T12:01:04.681Z,6484.00
2018-02-26T12:02:05.099Z,7948.00
2018-02-26T12:03:05.518Z,7528.00
2018-02-26T12:04:05.945Z,7648.00
2018-02-26T12:05:06.382Z,6528.00
2018-02-26T12:06:06.777Z,6196.00
2018-02-26T12:07:07.209Z,6224.00
2018-02-26T12:08:07.619Z,7272.00
2018-02-26T12:09:08.042Z,6908.00
2018-02-26T12:10:08.460Z,4840.00
2018-02-26T12:11:08.882Z,4288.00
2018-02-26T12:12:09.304Z,4764.00
2018-02-26T12:13:09.719Z,4856.00
2018-02-26T12:14:10.153Z,5732.00
2018-02-26T12:15:10.565Z,5496.00
2018-02-26T12:16:10.985Z,4652.00
2018-02-26T12:17:11.401Z,5004.00
2018-02-26T12:18:11.818Z,5224.00
2018-02-26T12:19:12.241Z,5708.00
2018-02-26T12:20:12.663Z,8172.00
2018-02-26T12:21:13.074Z,9708.00
2018-02-26T12:22:13.494Z,8448.00
2018-02-26T12:23:13.912Z,7716.00
2018-02-26T12:24:14.334Z,6852.00
2018-02-26T12:25:14.747Z,6780.00
2018-02-26T12:26:15.179Z,6656.00
2018-02-26T12:27:15.588Z,5176.00
2018-02-26T12:28:15.998Z,5576.00
2018-02-26T12:29:16.431Z,6200.00
2018-02-26T12:30:16.931Z,6384.00
2018-02-26T12:31:17.267Z,5164.00
2018-02-26T12:32:17.678Z,3916.00
2018-02-26T12:33:18.092Z,4472.00
2018-02-26T12:34:18.527Z,4636.00
2018-02-26T12:35:18.934Z,4048.00
2018-02-26T12:36:19.348Z,3812.00
2018-02-26T12:37:19.765Z,3996.00
2018-02-26T12:38:20.183Z,4944.00
2018-02-26T12:39:20.596Z,5176.00
2018-02-26T12:40:21.035Z,5232.00
2018-02-26T12:41:21.431Z,5300.00
2018-02-26T12:42:21.852Z,4708.00
2018-02-26T12:43:22.271Z,5276.00
2018-02-26T12:44:22.691Z,5064.00
2018-02-26T12:45:23.117Z,4872.00
2018-02-26T12:46:23.524Z,4576.00
2018-02-26T12:47:23.947Z,6260.00
2018-02-26T12:48:24.365Z,6804.00
2018-02-26T12:49:24.775Z,5824.00
2018-02-26T12:50:25.199Z,5696.00
2018-02-26T12:51:25.613Z,4792.00
2018-02-26T12:52:26.029Z,5388.00
2018-02-26T12:53:26.448Z,6860.00
2018-02-26T12:54:26.864Z,7212.00
2018-02-26T12:55:27.282Z,5572.00
2018-02-26T12:56:27.694Z,5756.00
2018-02-26T12:57:28.173Z,4936.00
2018-02-26T12:58:28.540Z,5368.00
2018-02-26T12:59:28.957Z,5008.00
2018-02-26T13:00:29.432Z,4496.00
2018-02-26T13:01:29.803Z,4176.00
2018-02-26T13:02:30.216Z,4056.00
2018-02-26T13:03:30.626Z,3908.00
2018-02-26T13:04:31.048Z,4464.00
2018-02-26T13:05:31.481Z,6012.00
2018-02-26T13:06:31.879Z,6700.00